Matias Isla

Chefscout - San Luis
17 Jul 2027
Samstag
Verarbeitung

Persönlichkeit

Anpassungsfähigkeit (7) Ehrgeiz (18) Kontroverse (9) Loyalität (2) Druck (2) Professionalität (9) Fairness (10) Temperament (10)

Profil

Trainerstil Demokratisch
Lizenz Nationale B
Entschlossenheit 8
Menschenführung 4
Motivation 5
Disziplin 5
Arbeitszufriedenheit
77%
Ermüdung
0%
Rolle Chefscout
Gehalt 40.8K p/W
Vertrag 14.03.2030

Leistung

Verhalten Gut
Trainingseffektivität
23%
Spielerentwicklung
25%
Verletzungsprävention
25%
Taktische Umsetzung
35%

Letzte Ereignisse

Nahm an einer Scouting-Besprechung teil 14T her
Nahm an einer Scouting-Besprechung teil 21T her
Nahm an einer Scouting-Besprechung teil 28T her
Nahm an einer Scouting-Besprechung teil 35T her
Nahm an einer Scouting-Besprechung teil 35T her
Nahm an einer Scouting-Besprechung teil 42T her
Nahm an einer Scouting-Besprechung teil 49T her
Nahm an einer Scouting-Besprechung teil 56T her

Aktuell beobachtet

99
Spieler Verein Status Fähigkeit Vertrauen Beobachtet Zuletzt beobachtet Letzte Stimme
Vicente Carcamo Universidad Catolica Aktiv 73 / 94 55% 1 14.06.2027 -
Augusto Bottini Almirante Brown Aktiv 101 / 97 40% 1 30.11.2026 -
Josh Keeley Luton Town Aktiv 116 / 112 40% 1 30.11.2026 -
Leandro Suhr Piast Aktiv 117 / 126 40% 3 26.11.2026 -
Driton Camaj Novi Pazar Aktiv 120 / 117 40% 1 26.11.2026 -
Marcelo Torres Gimnasia La Plata Aktiv 122 / 124 40% 3 23.11.2026 -
Vinko Rozić Istra 1961 Aktiv 134 / 124 40% 2 21.11.2026 -
Matej Trusa DAC Dunajska Streda Aktiv 107 / 129 40% 1 21.11.2026 -
Ekain Orobengoa Real Sociedad Aktiv 103 / 90 40% 4 20.11.2026 -
Nardin Mulahusejnović Vojvodina Aktiv 120 / 120 40% 1 19.11.2026 -
Emiliano Saliadarre Miramar Misiones Aktiv 116 / 109 40% 1 18.11.2026 -
Fran Vieites Exeter City Aktiv 101 / 114 40% 1 17.11.2026 -
Matías Dufour Sportivo Trinidense Aktiv 106 / 115 40% 2 15.11.2026 -
Johannes Eggestein Austria Wien Aktiv 126 / 119 40% 1 15.11.2026 -
Manu Nieto Andorra Aktiv 121 / 107 40% 5 13.11.2026 -
Gonzalo Valenzuela Palermo Aktiv 100 / 101 40% 1 13.11.2026 -
Kelvin Yeboah Minnesota United FC Aktiv 134 / 126 40% 1 12.11.2026 -
Abu Kamara Portsmouth Aktiv 104 / 130 40% 1 10.11.2026 -
Nathan Trott Cardiff City Aktiv 108 / 131 40% 1 10.11.2026 -
Diego Enríquez Sporting Cristal Aktiv 121 / 135 40% 1 10.11.2026 -
Anthony Patterson Wrexham Aktiv 130 / 124 40% 1 09.11.2026 -
Adriano Freitas Deportivo Maldonado Aktiv 103 / 98 40% 1 09.11.2026 -
Ammar Ramadan DAC Dunajska Streda Aktiv 108 / 128 40% 1 07.11.2026 -
Max Fenger IFK Goteborg Aktiv 125 / 120 40% 1 06.11.2026 -
Lukas Gütlbauer Wolfsberger AC Aktiv 115 / 101 40% 1 04.11.2026 Mehr Infos nötig
Agustín Lastra Estudiantes Aktiv 101 / 115 40% 1 04.11.2026 -
Xavier Biscayzacú Sporting CP Aktiv 136 / 126 40% 1 03.11.2026 -
Radek Šiler Podbrezova Aktiv 128 / 101 40% 1 03.11.2026 -
Harvey Blair Portsmouth Aktiv 97 / 104 40% 1 31.10.2026 -
Prince Owusu CF Montreal Aktiv 103 / 125 40% 1 31.10.2026 -
Francisco Bareiro Vaduz Aktiv 107 / 101 40% 3 30.10.2026 -
Seedy Jatta Sturm Graz Aktiv 112 / 128 40% 2 29.10.2026 -
Brayan Gil Baltika Aktiv 116 / 129 40% 1 29.10.2026 -
Emiliano Zacca Deportivo Riestra Aktiv 89 / 104 40% 1 29.10.2026 -
Claudiu Iancu Astra Aktiv 107 / 102 40% 1 29.10.2026 -
Friday Ubong Hearts of Oak Aktiv 92 / 88 40% 2 27.10.2026 -
Dario Vizinger NK Maribor Aktiv 112 / 115 40% 2 24.10.2026 -
Enzo Larrosa Independiente Medellin Aktiv 112 / 101 40% 3 22.10.2026 -
Armstrong Oko-Flex Levski Aktiv 121 / 109 40% 1 21.10.2026 -
Alonso Martínez NK Osijek Aktiv 132 / 105 40% 2 19.10.2026 -
Drake Callender Minnesota United FC Aktiv 131 / 112 40% 1 19.10.2026 -
Matheus Nascimento Houston Dynamo Aktiv 126 / 128 40% 1 17.10.2026 -
Eric Ramírez Carabobo Aktiv 105 / 116 40% 3 13.10.2026 -
Ángel González Libertad Aktiv 107 / 107 40% 2 12.10.2026 -
Santiago Garro Almirante Brown Aktiv 78 / 101 40% 1 12.10.2026 -
Giacomo Vrioni Wolfsberger AC Aktiv 97 / 114 40% 1 10.10.2026 -
Alexei Dominguez Pachuca Aktiv 97 / 102 40% 1 10.10.2026 -
Rafael Navarro St. Louis CITY SC Aktiv 122 / 132 40% 3 09.10.2026 -
Ronaldo Peña Deportivo Lara Aktiv 105 / 93 40% 1 09.10.2026 -
Tomás Chancalay Minnesota United FC Aktiv 146 / 131 40% 2 08.10.2026 -
Agustín Venezia Iquique Aktiv 117 / 113 40% 2 06.10.2026 -
Celso Castillo Aragua Aktiv 87 / 86 40% 2 03.10.2026 -
Gonzalo Córdoba Mitre Aktiv 105 / 111 40% 1 03.10.2026 -
Maximiliano Rodríguez Huachipato Aktiv 125 / 122 40% 1 30.09.2026 -
Junior Paredes Trujillanos Aktiv 104 / 111 40% 1 29.09.2026 -
Felipe Igón Racing Club Aktiv 78 / 101 40% 1 29.09.2026 -
Angus Gunn San Jose Earthquakes Aktiv 122 / 121 40% 1 29.09.2026 -
Ramiro Ruiz Rodríguez Atlético Tucumán Aktiv 123 / 129 40% 2 27.09.2026 -
Carlos Gómez Deportivo Municipal Aktiv 103 / 99 40% 1 27.09.2026 -
Aldo Pérez Guarani Aktiv 98 / 113 40% 1 27.09.2026 -
Tobias Bech AGF Aktiv 115 / 133 40% 1 23.09.2026 -
Luis Iberico Sporting Cristal Aktiv 107 / 110 40% 1 22.09.2026 -
Facundo Altamirano San Lorenzo Aktiv 114 / 116 40% 1 22.09.2026 -
Tobías Ganduglia Independiente Rivadavia Aktiv 97 / 88 40% 1 18.09.2026 -
Imanol Enríquez Olimpia Aktiv 116 / 108 40% 2 17.09.2026 -
Lucas Bruera Carabobo Aktiv 112 / 114 40% 1 17.09.2026 -
Angel Zamudio CFR Cluj Aktiv 102 / 122 40% 1 17.09.2026 -
Dayne St. Clair Inter Miami CF Aktiv 113 / 119 40% 1 14.09.2026 -
Tomás Romero Unión de Santa Fe Aktiv 85 / 101 40% 1 12.09.2026 -
Patricio Albornoz Atlético Tucumán Aktiv 105 / 94 40% 1 12.09.2026 -
Martín Leal Independiente Aktiv 86 / 103 40% 1 12.09.2026 -
Kévin Denkey FC Cincinnati Aktiv 141 / 142 40% 1 10.09.2026 -
Julián Brea Cobresal Aktiv 102 / 112 40% 1 09.09.2026 -
Thiago Vecino O'Higgins Aktiv 114 / 109 40% 1 08.09.2026 -
Adalberto Peñaranda Deportivo Tachira Aktiv 108 / 120 40% 1 07.09.2026 -
Liel Abada Charlotte Football Club Aktiv 111 / 128 40% 1 07.09.2026 -
Luca Langoni New England Revolution Aktiv 128 / 119 40% 2 06.09.2026 -
Federico Girotti Alianza Lima Aktiv 127 / 118 40% 3 05.09.2026 -
Oscar Ferraresi Llaneros Aktiv 117 / 116 40% 1 05.09.2026 -
Juan Romero Olimpia Aktiv 126 / 119 40% 2 03.09.2026 -
José Rivas Gamboa Trujillanos Aktiv 102 / 103 40% 2 30.08.2026 -
José Barragán Zamora Aktiv 105 / 101 40% 1 30.08.2026 -
Marcelo Fernández Libertad Aktiv 114 / 121 40% 1 28.08.2026 -
Felipe Vizeu Sporting Cristal Aktiv 126 / 119 40% 2 24.08.2026 -
José Balza Deportivo Tachira Aktiv 110 / 114 40% 1 24.08.2026 -
Matías Gallegos Antofagasta Aktiv 97 / 110 40% 1 23.08.2026 -
Agustín Anello Philadelphia Union Aktiv 121 / 109 40% 1 19.08.2026 -
Ian De Filippi San Lorenzo Aktiv 84 / 89 40% 1 18.08.2026 -
Fabricio Rojas Gimnasia y Tiro Aktiv 111 / 113 40% 1 17.08.2026 -
Mateusz Bogusz Houston Dynamo Aktiv 119 / 113 40% 1 17.08.2026 -
Lucas Besozzi Lanús Aktiv 104 / 128 40% 1 14.08.2026 -
Thiago Perugini San Lorenzo Aktiv 101 / 92 40% 1 12.08.2026 -
Genaro Rossi San Martín SJ Aktiv 112 / 117 40% 1 12.08.2026 -
Erik López Olimpia Aktiv 111 / 117 40% 1 08.08.2026 -
Christian Larotonda Caracas Aktiv 121 / 114 40% 1 04.08.2026 -
Santiago Rojas Nacional Aktiv 116 / 114 40% 1 04.08.2026 -
Jerónimo Gutiérrez Independiente Rivadavia Aktiv 91 / 100 40% 1 03.08.2026 -
Miguel Vargas Universitario Aktiv 108 / 117 40% 1 03.08.2026 -
Carlos Moreno Pachuca Aktiv 122 / 116 40% 1 01.08.2026 -